Time;durP1;ratioP1;P1;durP2;ratioP2;P2;SDS_P1;SDS_P2;PMS_P1;PMS_P2;Temp;Humidity;BMP_temperature;BMP_pressure;BME280_temperature;BME280_humidity;BME280_pressure;Samples;Min_cycle;Max_cycle;Signal;HPM_P1;HPM_P2
2021/08/18 00:00:28;;;;;;;;;;;;;;;21.19;57.71;100322.44;5120827;28;795;-52
2021/08/18 00:02:53;;;;;;;;;;;;;;;21.62;56.76;100318.31;5120643;28;1017;-54
2021/08/18 00:05:19;;;;;;;;;;;;;;;21.63;57.13;100317.16;5121059;28;851;-54
2021/08/18 00:07:44;;;;;;;;;;;;;;;21.52;55.94;100320.22;5120764;28;1209;-51
2021/08/18 00:10:10;;;;;;;;;;;;;;;21.10;53.79;100316.06;5120851;28;870;-52
2021/08/18 00:12:36;;;;;;;;;;;;;;;20.48;51.31;100314.72;5120788;28;783;-48
2021/08/18 00:15:01;;;;;;;;;;;;;;;20.03;49.31;100309.91;5120934;28;1918;-52
2021/08/18 00:17:27;;;;;;;;;;;;;;;19.72;47.20;100309.69;5120433;28;962;-49
2021/08/18 00:19:52;;;;;;;;;;;;;;;19.60;45.68;100315.69;5120922;28;831;-53
2021/08/18 00:22:18;;;;;;;;;;;;;;;19.41;46.05;100307.53;5120527;28;744;-47
2021/08/18 00:24:43;;;;;;;;;;;;;;;19.76;48.46;100311.53;5120499;28;764;-51
2021/08/18 00:27:08;;;;;;;;;;;;;;;20.17;51.21;100321.75;5120490;28;747;-52
2021/08/18 00:29:34;;;;;;;;;;;;;;;20.73;52.80;100321.63;5120568;28;787;-53
2021/08/18 00:31:59;;;;;;;;;;;;;;;20.51;55.51;100328.75;5119817;28;974;-49
2021/08/18 00:34:25;;;;;;;;;;;;;;;20.65;56.50;100327.88;5120660;28;823;-52
2021/08/18 00:36:50;;;;;;;;;;;;;;;21.10;56.34;100333.44;5120077;28;1910;-49
2021/08/18 00:39:16;;;;;;;;;;;;;;;21.38;56.46;100327.78;5120298;28;751;-49
2021/08/18 00:41:42;;;;;;;;;;;;;;;21.57;56.29;100315.69;5120354;28;866;-51
2021/08/18 00:44:07;;;;;;;;;;;;;;;21.51;56.37;100318.53;5120554;28;767;-47
2021/08/18 00:46:39;;;;;;;;;;;;;;;21.10;55.58;100321.59;5119712;28;958;-54
2021/08/18 00:49:05;;;;;;;;;;;;;;;21.02;51.96;100328.69;5120343;28;802;-51
2021/08/18 00:51:30;;;;;;;;;;;;;;;20.38;49.63;100331.53;5119832;28;795;-51
2021/08/18 00:53:56;;;;;;;;;;;;;;;19.97;47.56;100327.72;5120483;28;759;-47
2021/08/18 00:56:23;;;;;;;;;;;;;;;19.59;46.33;100325.13;5119796;28;1933;-53
2021/08/18 00:58:48;;;;;;;;;;;;;;;19.35;45.33;100323.34;5120064;28;842;-52
2021/08/18 01:01:14;;;;;;;;;;;;;;;19.35;48.27;100328.84;5119372;28;994;-52
2021/08/18 01:03:39;;;;;;;;;;;;;;;19.91;51.25;100326.16;5120128;28;798;-51
2021/08/18 01:06:04;;;;;;;;;;;;;;;20.25;53.06;100324.91;5119796;28;806;-48
2021/08/18 01:08:30;;;;;;;;;;;;;;;20.52;54.60;100324.84;5119270;28;1034;-51
2021/08/18 01:10:56;;;;;;;;;;;;;;;20.68;55.67;100328.09;5119656;28;862;-49
2021/08/18 01:13:22;;;;;;;;;;;;;;;21.08;55.81;100326.59;5119896;28;867;-52
2021/08/18 01:15:47;;;;;;;;;;;;;;;21.03;56.87;100322.03;5119469;28;1906;-49
2021/08/18 01:18:13;;;;;;;;;;;;;;;21.31;57.03;100324.63;5119014;28;950;-52
2021/08/18 01:20:39;;;;;;;;;;;;;;;21.53;56.85;100338.44;5119685;28;751;-53
2021/08/18 01:23:05;;;;;;;;;;;;;;;21.69;57.03;100340.78;5119658;28;751;-54
2021/08/18 01:25:30;;;;;;;;;;;;;;;21.79;56.47;100326.66;5119506;28;767;-49
2021/08/18 01:27:57;;;;;;;;;;;;;;;21.61;54.87;100322.19;5119756;28;744;-53
2021/08/18 01:30:22;;;;;;;;;;;;;;;20.99;53.19;100321.81;5118868;28;843;-54
2021/08/18 01:32:48;;;;;;;;;;;;;;;20.79;50.13;100309.34;5119033;28;930;-50
2021/08/18 01:35:20;;;;;;;;;;;;;;;20.25;48.31;100306.41;5119420;28;1905;-54
2021/08/18 01:37:46;;;;;;;;;;;;;;;19.93;46.33;100312.88;5118829;28;870;-48
2021/08/18 01:40:11;;;;;;;;;;;;;;;19.59;45.39;100311.34;5119154;28;855;-52
2021/08/18 01:42:37;;;;;;;;;;;;;;;19.32;45.97;100310.97;5119105;28;814;-53
2021/08/18 01:45:03;;;;;;;;;;;;;;;19.62;46.83;100321.75;5118813;28;823;-52
2021/08/18 01:47:28;;;;;;;;;;;;;;;19.82;48.09;100320.53;5118592;28;1001;-48
2021/08/18 01:49:54;;;;;;;;;;;;;;;19.91;49.58;100321.47;5119431;28;787;-51
2021/08/18 01:52:19;;;;;;;;;;;;;;;19.82;51.12;100313.09;5118543;28;882;-53
2021/08/18 01:54:45;;;;;;;;;;;;;;;20.15;51.43;100315.72;5118756;28;1968;-48
2021/08/18 01:57:10;;;;;;;;;;;;;;;20.11;52.00;100317.47;5119196;28;776;-53
2021/08/18 01:59:35;;;;;;;;;;;;;;;20.20;52.48;100316.75;5118431;28;847;-54
2021/08/18 02:02:01;;;;;;;;;;;;;;;20.10;52.90;100313.06;5118416;28;930;-52
2021/08/18 02:04:26;;;;;;;;;;;;;;;20.08;53.18;100311.75;5118780;28;823;-53
2021/08/18 02:06:52;;;;;;;;;;;;;;;20.36;52.86;100315.28;5118603;28;1165;-48
2021/08/18 02:09:17;;;;;;;;;;;;;;;20.36;53.15;100307.00;5118650;28;835;-50
2021/08/18 02:11:43;;;;;;;;;;;;;;;20.29;53.71;100312.13;5118568;28;899;-47
2021/08/18 02:14:08;;;;;;;;;;;;;;;20.42;53.44;100311.25;5118891;28;811;-52
2021/08/18 02:16:34;;;;;;;;;;;;;;;20.50;53.21;100302.25;5117881;28;1917;-51
2021/08/18 02:18:59;;;;;;;;;;;;;;;20.39;53.75;100305.56;5118159;28;838;-53
2021/08/18 02:21:25;;;;;;;;;;;;;;;20.46;53.82;100315.03;5117585;28;771;-52
2021/08/18 02:23:50;;;;;;;;;;;;;;;20.55;53.54;100314.31;5118534;28;763;-52
2021/08/18 02:26:15;;;;;;;;;;;;;;;20.71;53.04;100318.38;5118448;28;778;-48
2021/08/18 02:28:41;;;;;;;;;;;;;;;20.43;53.71;100318.44;5118227;28;858;-49
2021/08/18 02:31:06;;;;;;;;;;;;;;;20.52;53.57;100318.50;5118030;28;759;-47
2021/08/18 02:33:34;;;;;;;;;;;;;;;20.66;53.21;100326.75;5117328;28;946;-54
2021/08/18 02:35:59;;;;;;;;;;;;;;;20.51;53.33;100325.97;5118218;28;1972;-53
2021/08/18 02:38:24;;;;;;;;;;;;;;;20.37;54.06;100330.72;5117782;28;863;-53
2021/08/18 02:40:50;;;;;;;;;;;;;;;20.57;53.37;100323.09;5117933;28;842;-46
2021/08/18 02:43:15;;;;;;;;;;;;;;;20.49;53.77;100321.88;5118123;28;790;-47
2021/08/18 02:45:40;;;;;;;;;;;;;;;20.37;54.14;100308.63;5118145;28;834;-47
2021/08/18 02:48:06;;;;;;;;;;;;;;;20.50;53.65;100304.19;5117054;28;915;-46
2021/08/18 02:50:31;;;;;;;;;;;;;;;20.62;53.39;100303.63;5117941;28;763;-54
2021/08/18 02:52:57;;;;;;;;;;;;;;;20.61;53.30;100296.50;5117678;28;744;-53
2021/08/18 02:55:22;;;;;;;;;;;;;;;20.71;53.22;100301.78;5117687;28;1917;-53
2021/08/18 02:57:48;;;;;;;;;;;;;;;20.68;53.21;100302.44;5117732;28;751;-47
2021/08/18 03:00:13;;;;;;;;;;;;;;;20.93;52.64;100302.91;5117469;28;747;-54
2021/08/18 03:02:39;;;;;;;;;;;;;;;20.57;53.54;100301.81;5117138;28;958;-48
2021/08/18 03:05:05;;;;;;;;;;;;;;;20.85;52.88;100301.75;5117751;28;755;-54
2021/08/18 03:07:30;;;;;;;;;;;;;;;20.69;53.50;100309.56;5117266;28;1161;-53
2021/08/18 03:10:02;;;;;;;;;;;;;;;20.90;52.97;100309.06;5117240;28;811;-48
2021/08/18 03:12:27;;;;;;;;;;;;;;;20.78;53.81;100313.22;5105303;28;1542;-51
2021/08/18 03:14:52;;;;;;;;;;;;;;;20.87;53.77;100323.53;5103341;28;1974;-53
2021/08/18 03:17:18;;;;;;;;;;;;;;;20.84;53.50;100322.19;5106441;28;1005;-53
2021/08/18 03:19:43;;;;;;;;;;;;;;;20.93;53.14;100319.50;5117338;28;755;-53
2021/08/18 03:22:09;;;;;;;;;;;;;;;20.77;53.13;100321.81;5116489;28;1529;-53
2021/08/18 03:24:34;;;;;;;;;;;;;;;20.91;52.77;100317.06;5112846;28;747;-52
2021/08/18 03:27:00;;;;;;;;;;;;;;;20.83;52.80;100315.88;5117249;28;858;-52
2021/08/18 03:29:25;;;;;;;;;;;;;;;20.59;53.36;100323.59;5116679;28;819;-52
2021/08/18 03:31:50;;;;;;;;;;;;;;;20.57;53.42;100320.34;5111355;28;1490;-54
2021/08/18 03:34:16;;;;;;;;;;;;;;;20.87;52.77;100320.75;5116690;28;1487;-48
2021/08/18 03:36:41;;;;;;;;;;;;;;;20.70;53.24;100321.44;5107174;28;1914;-54
2021/08/18 03:39:07;;;;;;;;;;;;;;;20.82;52.88;100317.00;5116876;28;767;-47
2021/08/18 03:41:35;;;;;;;;;;;;;;;20.77;53.13;100322.63;5115997;28;767;-48
2021/08/18 03:44:00;;;;;;;;;;;;;;;20.82;53.16;100321.72;5116634;28;728;-54
2021/08/18 03:46:26;;;;;;;;;;;;;;;20.84;53.00;100316.69;5107270;28;828;-51
2021/08/18 03:48:51;;;;;;;;;;;;;;;20.81;52.91;100323.66;5117134;28;788;-54
2021/08/18 03:51:17;;;;;;;;;;;;;;;20.74;53.01;100323.28;5116302;28;862;-54
2021/08/18 03:53:42;;;;;;;;;;;;;;;20.86;52.96;100322.72;5110590;28;1491;-51
2021/08/18 03:56:08;;;;;;;;;;;;;;;20.84;52.97;100328.53;5101452;28;1969;-50
2021/08/18 03:58:34;;;;;;;;;;;;;;;20.71;53.46;100315.63;5096548;28;791;-58
2021/08/18 04:00:59;;;;;;;;;;;;;;;20.80;52.88;100322.03;5106933;28;862;-51
2021/08/18 04:03:25;;;;;;;;;;;;;;;20.72;53.55;100316.41;5116212;28;974;-54
2021/08/18 04:05:50;;;;;;;;;;;;;;;21.03;52.61;100322.84;5116667;28;779;-53
2021/08/18 04:08:16;;;;;;;;;;;;;;;20.99;52.63;100326.56;5116836;28;1034;-53
2021/08/18 04:10:41;;;;;;;;;;;;;;;20.69;53.52;100331.66;5116458;28;810;-52
2021/08/18 04:13:06;;;;;;;;;;;;;;;20.79;53.13;100325.09;5116675;28;758;-56
2021/08/18 04:15:39;;;;;;;;;;;;;;;20.59;53.66;100329.13;5116799;28;1937;-57
2021/08/18 04:18:05;;;;;;;;;;;;;;;20.83;53.04;100324.16;5116030;28;871;-56
2021/08/18 04:20:30;;;;;;;;;;;;;;;20.93;53.03;100325.03;5116332;28;807;-58
2021/08/18 04:22:55;;;;;;;;;;;;;;;20.95;53.08;100331.06;5116800;28;767;-57
2021/08/18 04:25:21;;;;;;;;;;;;;;;20.98;55.10;100334.00;5116703;28;731;-56
2021/08/18 04:27:46;;;;;;;;;;;;;;;21.07;55.39;100330.50;5116755;28;763;-58
2021/08/18 04:30:12;;;;;;;;;;;;;;;21.04;54.46;100337.47;5116097;28;886;-57
2021/08/18 04:32:38;;;;;;;;;;;;;;;20.76;53.47;100334.84;5116103;28;985;-48
2021/08/18 04:35:04;;;;;;;;;;;;;;;20.64;51.67;100340.06;5116372;28;1917;-55
2021/08/18 04:37:29;;;;;;;;;;;;;;;20.59;50.15;100345.69;5111653;28;1103;-57
2021/08/18 04:39:55;;;;;;;;;;;;;;;20.16;48.92;100344.13;5095697;28;836;-58
2021/08/18 04:42:20;;;;;;;;;;;;;;;20.00;48.38;100346.41;5095584;28;835;-57
2021/08/18 04:44:46;;;;;;;;;;;;;;;20.07;47.18;100344.03;5099534;28;811;-57
2021/08/18 04:47:11;;;;;;;;;;;;;;;20.03;46.71;100348.53;5108292;28;950;-57
2021/08/18 04:49:36;;;;;;;;;;;;;;;20.10;46.16;100343.41;5120317;28;790;-56
2021/08/18 04:52:04;;;;;;;;;;;;;;;19.81;49.33;100350.09;5119864;28;783;-56
2021/08/18 04:54:30;;;;;;;;;;;;;;;20.03;51.74;100356.00;5120117;28;755;-56
2021/08/18 04:57:00;;;;;;;;;;;;;;;20.37;53.25;100366.63;5119875;28;1983;-56
2021/08/18 04:59:25;;;;;;;;;;;;;;;20.91;53.94;100364.03;5119688;28;771;-55
2021/08/18 05:01:51;;;;;;;;;;;;;;;21.11;54.72;100373.78;5119883;28;966;-57
2021/08/18 05:04:16;;;;;;;;;;;;;;;21.27;55.37;100371.44;5119968;28;788;-55
2021/08/18 05:06:41;;;;;;;;;;;;;;;21.57;55.34;100379.31;5119381;28;1174;-56
2021/08/18 05:09:07;;;;;;;;;;;;;;;21.64;55.46;100371.38;5119610;28;763;-52
2021/08/18 05:11:32;;;;;;;;;;;;;;;21.27;54.72;100376.19;5119886;28;775;-54
2021/08/18 05:13:58;;;;;;;;;;;;;;;20.82;52.51;100372.25;5119923;28;787;-54
2021/08/18 05:16:23;;;;;;;;;;;;;;;20.33;49.68;100369.19;5119494;28;1913;-54
2021/08/18 05:18:49;;;;;;;;;;;;;;;19.72;48.04;100373.94;5119668;28;826;-56
2021/08/18 05:21:15;;;;;;;;;;;;;;;19.69;45.30;100371.00;5119017;28;815;-55
2021/08/18 05:23:41;;;;;;;;;;;;;;;19.22;44.76;100373.72;5119618;28;810;-47
2021/08/18 05:26:06;;;;;;;;;;;;;;;19.27;43.90;100381.94;5119582;28;881;-50
2021/08/18 05:28:32;;;;;;;;;;;;;;;19.23;46.96;100383.66;5119491;28;818;-47
2021/08/18 05:30:57;;;;;;;;;;;;;;;19.95;50.54;100390.66;5119168;28;802;-49
2021/08/18 05:33:23;;;;;;;;;;;;;;;20.27;53.13;100391.66;5118726;28;994;-55
2021/08/18 05:35:48;;;;;;;;;;;;;;;20.64;54.18;100389.78;5118909;28;1909;-56
2021/08/18 05:38:14;;;;;;;;;;;;;;;20.93;55.02;100391.34;5119327;28;780;-55
2021/08/18 05:40:39;;;;;;;;;;;;;;;21.20;55.37;100390.44;5119276;28;775;-49
2021/08/18 05:43:05;;;;;;;;;;;;;;;21.18;56.05;100388.00;5118744;28;847;-54
2021/08/18 05:45:30;;;;;;;;;;;;;;;21.32;56.60;100390.69;5100604;28;796;-51
2021/08/18 05:47:55;;;;;;;;;;;;;;;21.43;56.54;100382.94;5099975;28;1133;-54
2021/08/18 05:50:21;;;;;;;;;;;;;;;21.32;57.52;100381.56;5118847;28;755;-49
2021/08/18 05:52:46;;;;;;;;;;;;;;;21.48;56.82;100379.22;5118910;28;819;-54
2021/08/18 05:55:12;;;;;;;;;;;;;;;21.24;54.84;100382.31;5117550;28;1917;-50
2021/08/18 05:57:37;;;;;;;;;;;;;;;20.84;52.25;100383.81;5118668;28;901;-49
2021/08/18 06:00:04;;;;;;;;;;;;;;;20.28;50.39;100385.03;5091435;28;941;-54
2021/08/18 06:02:29;;;;;;;;;;;;;;;19.92;48.57;100385.75;5109034;28;955;-57
2021/08/18 06:04:54;;;;;;;;;;;;;;;19.85;45.86;100380.63;5118553;28;786;-53
2021/08/18 06:07:20;;;;;;;;;;;;;;;19.52;45.08;100371.56;5118722;28;1031;-50
2021/08/18 06:09:45;;;;;;;;;;;;;;;19.32;45.57;100382.66;5118412;28;829;-54
2021/08/18 06:12:11;;;;;;;;;;;;;;;19.80;48.26;100378.00;5118091;28;763;-53
2021/08/18 06:14:36;;;;;;;;;;;;;;;20.10;51.77;100376.53;5118645;28;811;-58
2021/08/18 06:17:02;;;;;;;;;;;;;;;20.40;53.42;100382.56;5117920;28;1909;-55
2021/08/18 06:19:28;;;;;;;;;;;;;;;20.77;54.78;100380.66;5100415;28;1077;-56
2021/08/18 06:21:54;;;;;;;;;;;;;;;20.97;55.27;100378.53;5117953;28;835;-56
2021/08/18 06:26:45;;;;;;;;;;;;;;;21.43;56.41;100382.94;5117596;28;967;-56
2021/08/18 06:29:11;;;;;;;;;;;;;;;21.68;56.37;100392.53;5117898;28;743;-56
2021/08/18 06:31:36;;;;;;;;;;;;;;;21.72;56.74;100387.19;5117206;28;1010;-56
2021/08/18 06:34:02;;;;;;;;;;;;;;;21.61;56.51;100388.59;5118017;28;771;-52
2021/08/18 06:36:27;;;;;;;;;;;;;;;21.14;54.82;100389.75;5117369;28;1905;-52
2021/08/18 06:38:52;;;;;;;;;;;;;;;20.79;52.75;100377.59;5117667;28;803;-55
2021/08/18 06:41:18;;;;;;;;;;;;;;;20.49;50.54;100383.47;5117634;28;830;-54
2021/08/18 06:43:43;;;;;;;;;;;;;;;20.39;48.67;100382.88;5117714;28;755;-55
2021/08/18 06:46:09;;;;;;;;;;;;;;;19.80;48.04;100378.00;5117752;28;1009;-56
2021/08/18 06:48:34;;;;;;;;;;;;;;;19.81;46.34;100379.59;5117117;28;958;-57
2021/08/18 06:51:00;;;;;;;;;;;;;;;19.77;45.70;100376.63;5117075;28;779;-54
2021/08/18 06:53:25;;;;;;;;;;;;;;;19.72;46.48;100364.88;5117467;28;795;-55
2021/08/18 06:55:51;;;;;;;;;;;;;;;19.97;47.17;100369.09;5117374;28;1901;-56
2021/08/18 06:58:16;;;;;;;;;;;;;;;19.91;48.29;100357.34;5117765;28;756;-56
2021/08/18 07:00:42;;;;;;;;;;;;;;;19.87;49.21;100361.03;5118013;28;988;-55
2021/08/18 07:03:07;;;;;;;;;;;;;;;20.03;48.98;100365.09;5116425;28;958;-55
2021/08/18 07:05:34;;;;;;;;;;;;;;;20.14;48.97;100365.72;5116948;28;799;-56
2021/08/18 07:07:59;;;;;;;;;;;;;;;20.07;49.49;100366.13;5099312;28;1186;-56
2021/08/18 07:10:25;;;;;;;;;;;;;;;19.84;50.47;100367.97;5116764;28;863;-55
2021/08/18 07:12:50;;;;;;;;;;;;;;;20.04;51.11;100363.97;5116991;28;759;-57
2021/08/18 07:15:16;;;;;;;;;;;;;;;20.34;51.41;100361.69;5117450;28;1989;-56
2021/08/18 07:17:41;;;;;;;;;;;;;;;20.39;52.78;100363.56;5116166;28;977;-55
2021/08/18 07:20:07;;;;;;;;;;;;;;;20.55;53.66;100361.25;5116820;28;878;-55
2021/08/18 07:22:33;;;;;;;;;;;;;;;20.60;54.30;100363.91;5116964;28;807;-57
2021/08/18 07:24:59;;;;;;;;;;;;;;;20.83;54.19;100371.13;5117032;28;730;-55
2021/08/18 07:27:24;;;;;;;;;;;;;;;20.92;54.83;100371.19;5116784;28;858;-56
2021/08/18 07:29:50;;;;;;;;;;;;;;;20.87;55.03;100364.97;5117054;28;767;-51
2021/08/18 07:32:15;;;;;;;;;;;;;;;20.96;55.39;100368.66;5116657;28;1009;-55
2021/08/18 07:34:41;;;;;;;;;;;;;;;20.88;55.84;100364.66;5116680;28;771;-54
2021/08/18 07:37:07;;;;;;;;;;;;;;;20.99;56.03;100362.47;5115829;28;1984;-56
2021/08/18 07:39:32;;;;;;;;;;;;;;;21.25;55.53;100370.97;5116406;28;819;-57
2021/08/18 07:41:58;;;;;;;;;;;;;;;21.20;55.76;100369.13;5116634;28;764;-50
2021/08/18 07:44:24;;;;;;;;;;;;;;;21.30;56.65;100368.06;5116668;28;842;-56
2021/08/18 07:46:50;;;;;;;;;;;;;;;21.12;54.70;100372.66;5116185;28;1001;-57
2021/08/18 07:49:15;;;;;;;;;;;;;;;20.74;52.43;100369.44;5116720;28;827;-57
2021/08/18 07:51:41;;;;;;;;;;;;;;;20.26;50.43;100371.53;5116862;28;811;-56
2021/08/18 07:54:06;;;;;;;;;;;;;;;20.03;47.96;100370.63;5115717;28;1151;-56
2021/08/18 07:56:32;;;;;;;;;;;;;;;19.83;46.00;100367.13;5116074;28;2047;-52
2021/08/18 07:59:00;;;;;;;;;;;;;;;19.28;45.52;100372.53;5116543;28;886;-55
2021/08/18 08:01:26;;;;;;;;;;;;;;;19.08;45.03;100380.03;5115872;28;957;-53
2021/08/18 08:03:51;;;;;;;;;;;;;;;19.11;46.83;100381.34;5116153;28;787;-57
2021/08/18 08:06:17;;;;;;;;;;;;;;;19.62;50.98;100387.94;5116826;28;775;-56
2021/08/18 08:08:42;;;;;;;;;;;;;;;20.33;54.08;100379.41;5116088;28;1058;-57
2021/08/18 08:11:07;;;;;;;;;;;;;;;20.77;56.13;100377.91;5116183;28;767;-55
2021/08/18 08:13:33;;;;;;;;;;;;;;;21.13;56.88;100376.25;5116470;28;830;-57
2021/08/18 08:15:58;;;;;;;;;;;;;;;21.56;57.55;100380.44;5116361;28;1918;-56
2021/08/18 08:18:24;;;;;;;;;;;;;;;21.85;57.51;100382.69;5117542;28;954;-56
2021/08/18 08:20:49;;;;;;;;;;;;;;;21.79;57.81;100379.25;5120134;28;740;-54
2021/08/18 08:23:14;;;;;;;;;;;;;;;21.31;55.85;100371.66;5120168;28;886;-57
2021/08/18 08:25:40;;;;;;;;;;;;;;;20.67;54.28;100372.59;5120238;28;735;-55
2021/08/18 08:28:05;;;;;;;;;;;;;;;20.45;51.71;100376.09;5120406;28;786;-55
2021/08/18 08:30:31;;;;;;;;;;;;;;;20.40;49.73;100371.53;5120233;28;760;-56
2021/08/18 08:32:56;;;;;;;;;;;;;;;19.88;48.82;100363.47;5119798;28;1029;-55
2021/08/18 08:35:21;;;;;;;;;;;;;;;19.98;47.21;100362.47;5119756;28;1918;-55
2021/08/18 08:37:47;;;;;;;;;;;;;;;19.65;47.15;100370.78;5120322;28;806;-56
2021/08/18 08:40:13;;;;;;;;;;;;;;;19.55;46.92;100362.69;5119830;28;862;-47
2021/08/18 08:42:41;;;;;;;;;;;;;;;19.69;47.49;100363.53;5119987;28;735;-55
2021/08/18 08:45:07;;;;;;;;;;;;;;;19.70;48.39;100356.91;5120031;28;759;-55
2021/08/18 08:47:35;;;;;;;;;;;;;;;19.82;48.98;100360.00;5119054;28;986;-55
2021/08/18 08:50:04;;;;;;;;;;;;;;;20.08;49.64;100362.25;5119741;28;771;-55
2021/08/18 08:52:30;;;;;;;;;;;;;;;19.92;51.73;100366.44;5120007;28;735;-47
2021/08/18 08:54:56;;;;;;;;;;;;;;;20.27;53.05;100366.81;5119441;28;1917;-56
2021/08/18 08:57:21;;;;;;;;;;;;;;;20.40;54.17;100357.72;5119608;28;815;-53
2021/08/18 08:59:49;;;;;;;;;;;;;;;20.67;54.49;100361.53;5119544;28;744;-55
2021/08/18 09:02:15;;;;;;;;;;;;;;;20.85;54.92;100346.75;5119360;28;966;-55
2021/08/18 09:04:44;;;;;;;;;;;;;;;20.92;55.15;100351.06;5119335;28;873;-48
2021/08/18 09:07:09;;;;;;;;;;;;;;;20.97;55.75;100348.16;5119984;28;1280;-53
2021/08/18 09:09:35;;;;;;;;;;;;;;;21.04;55.93;100362.34;5119456;28;728;-55
2021/08/18 09:12:04;;;;;;;;;;;;;;;21.30;55.63;100356.19;5119282;28;842;-56
2021/08/18 09:14:30;;;;;;;;;;;;;;;21.23;56.20;100356.63;5119466;28;838;-49
2021/08/18 09:16:55;;;;;;;;;;;;;;;21.24;56.30;100351.91;5118754;28;1968;-56
2021/08/18 09:19:26;;;;;;;;;;;;;;;21.42;55.37;100350.91;5118204;28;956;-54
2021/08/18 09:21:54;;;;;;;;;;;;;;;21.15;54.15;100344.41;5119699;28;791;-45
2021/08/18 09:24:24;;;;;;;;;;;;;;;21.08;51.72;100344.00;5118706;28;536;-55
2021/08/18 09:26:52;;;;;;;;;;;;;;;20.44;49.87;100342.16;5100934;28;863;-55
2021/08/18 09:29:45;;;;;;;;;;;;;;;19.98;48.28;100337.63;5119087;28;755;-50
2021/08/18 09:32:19;;;;;;;;;;;;;;;19.92;46.00;100333.31;5114962;28;1714;-46
2021/08/18 09:34:55;;;;;;;;;;;;;;;19.41;45.40;100340.63;5119281;28;879;-55
2021/08/18 09:37:20;;;;;;;;;;;;;;;19.37;45.32;100340.38;5118792;28;810;-55
2021/08/18 09:39:46;;;;;;;;;;;;;;;19.70;47.88;100345.88;5118671;28;941;-56
2021/08/18 09:42:43;;;;;;;;;;;;;;;20.10;52.23;100340.66;5118939;28;815;-46
2021/08/18 09:45:09;;;;;;;;;;;;;;;20.90;54.94;100342.25;5062814;28;1250;-55
2021/08/18 09:47:35;;;;;;;;;;;;;;;21.17;56.67;100330.25;5118700;28;958;-56
2021/08/18 09:50:00;;;;;;;;;;;;;;;21.42;57.67;100344.53;5118638;28;815;-58
2021/08/18 09:52:26;;;;;;;;;;;;;;;21.65;57.81;100337.03;5118883;28;807;-45
2021/08/18 09:54:51;;;;;;;;;;;;;;;21.25;56.93;100336.94;5118248;28;1977;-46
2021/08/18 09:57:17;;;;;;;;;;;;;;;20.88;54.98;100334.25;5118789;28;755;-59
2021/08/18 09:59:45;;;;;;;;;;;;;;;20.57;52.47;100334.97;5100166;28;1412;-46
2021/08/18 10:02:10;;;;;;;;;;;;;;;20.20;50.81;100325.03;5100095;28;1006;-45
2021/08/18 10:04:36;;;;;;;;;;;;;;;20.02;49.07;100326.78;5119040;28;731;-50
2021/08/18 10:07:01;;;;;;;;;;;;;;;19.78;48.01;100336.03;5100017;28;1261;-45
2021/08/18 10:09:27;;;;;;;;;;;;;;;19.67;47.24;100327.16;5118396;28;843;-56
2021/08/18 10:11:52;;;;;;;;;;;;;;;19.58;46.23;100329.81;5100232;28;791;-57
2021/08/18 10:14:19;;;;;;;;;;;;;;;19.81;45.95;100325.25;5100060;28;838;-57
2021/08/18 10:16:44;;;;;;;;;;;;;;;19.69;47.00;100326.88;5117157;28;1905;-57
2021/08/18 10:19:10;;;;;;;;;;;;;;;19.86;48.90;100326.28;5118116;28;739;-45
2021/08/18 10:21:35;;;;;;;;;;;;;;;20.13;50.74;100323.50;5118467;28;775;-57
2021/08/18 10:24:01;;;;;;;;;;;;;;;20.20;53.00;100327.78;5099696;28;815;-50
2021/08/18 10:26:36;;;;;;;;;;;;;;;20.32;54.30;100322.53;5117890;28;834;-57
2021/08/18 10:29:04;;;;;;;;;;;;;;;20.67;54.07;100317.34;5117798;28;839;-56
2021/08/18 10:31:48;;;;;;;;;;;;;;;20.66;55.23;100315.69;5117289;28;958;-45
2021/08/18 10:34:25;;;;;;;;;;;;;;;20.88;55.29;100322.41;5117692;28;748;-53
2021/08/18 10:36:52;;;;;;;;;;;;;;;20.91;55.65;100328.09;5117768;28;1910;-58
2021/08/18 10:39:26;;;;;;;;;;;;;;;20.92;56.08;100324.22;5117556;28;770;-57
2021/08/18 10:41:57;;;;;;;;;;;;;;;21.12;55.95;100327.59;5117001;28;759;-57
2021/08/18 10:44:34;;;;;;;;;;;;;;;21.12;55.89;100333.94;5118044;28;727;-58
2021/08/18 10:47:18;;;;;;;;;;;;;;;21.06;54.06;100323.34;5116776;28;954;-58
2021/08/18 10:49:44;;;;;;;;;;;;;;;20.47;52.71;100324.16;5117534;28;779;-58
2021/08/18 10:52:09;;;;;;;;;;;;;;;20.35;50.73;100316.41;5117635;28;775;-57
2021/08/18 10:54:38;;;;;;;;;;;;;;;20.32;49.04;100315.06;5116916;28;791;-57
2021/08/18 10:57:04;;;;;;;;;;;;;;;20.07;47.66;100310.94;5117810;28;1905;-58
2021/08/18 10:59:35;;;;;;;;;;;;;;;19.85;47.21;100313.59;5117509;28;811;-45
2021/08/18 11:02:04;;;;;;;;;;;;;;;19.60;46.82;100319.28;5116601;28;958;-58
2021/08/18 11:04:42;;;;;;;;;;;;;;;19.51;46.05;100314.78;5117675;28;791;-58
2021/08/18 11:07:08;;;;;;;;;;;;;;;19.25;47.01;100312.47;5116476;28;1141;-60
2021/08/18 11:09:48;;;;;;;;;;;;;;;19.62;47.15;100300.50;5116957;28;763;-58
2021/08/18 11:12:32;;;;;;;;;;;;;;;19.73;48.48;100312.16;5117253;28;783;-45
2021/08/18 11:14:58;;;;;;;;;;;;;;;19.98;49.20;100307.28;5117110;28;1980;-56
2021/08/18 11:17:24;;;;;;;;;;;;;;;20.07;51.11;100302.66;5116606;28;997;-46
2021/08/18 11:19:49;;;;;;;;;;;;;;;20.54;53.68;100304.38;5117265;28;843;-47
2021/08/18 11:22:15;;;;;;;;;;;;;;;20.96;55.87;100299.53;5116975;28;779;-57
2021/08/18 11:24:40;;;;;;;;;;;;;;;21.32;57.05;100299.44;5116902;28;874;-57
2021/08/18 11:27:06;;;;;;;;;;;;;;;21.81;57.32;100299.50;5116947;28;859;-58
2021/08/18 11:29:33;;;;;;;;;;;;;;;21.91;57.48;100294.78;5116524;28;818;-57
2021/08/18 11:32:05;;;;;;;;;;;;;;;21.43;56.28;100288.88;5098600;28;1196;-56
2021/08/18 11:34:31;;;;;;;;;;;;;;;20.97;54.12;100287.34;5117058;28;835;-57
2021/08/18 11:37:02;;;;;;;;;;;;;;;20.49;52.51;100285.97;5116648;28;2048;-58
2021/08/18 11:39:29;;;;;;;;;;;;;;;20.69;49.77;100276.41;5116766;28;758;-49
2021/08/18 11:41:55;;;;;;;;;;;;;;;19.91;48.96;100279.25;5116923;28;763;-58
2021/08/18 11:44:24;;;;;;;;;;;;;;;20.10;47.41;100281.91;5116343;28;739;-58
2021/08/18 11:46:49;;;;;;;;;;;;;;;19.94;46.27;100278.66;5116393;28;953;-57
2021/08/18 11:49:15;;;;;;;;;;;;;;;19.73;46.82;100273.53;5116823;28;973;-56
2021/08/18 11:51:40;;;;;;;;;;;;;;;19.70;47.28;100265.03;5116962;28;786;-55
2021/08/18 11:54:05;;;;;;;;;;;;;;;19.81;49.66;100264.56;5115982;28;782;-52
2021/08/18 11:56:31;;;;;;;;;;;;;;;20.02;51.79;100264.13;5098417;28;1985;-51
2021/08/18 11:58:57;;;;;;;;;;;;;;;20.36;52.94;100268.34;5116167;28;814;-55
2021/08/18 12:01:22;;;;;;;;;;;;;;;20.46;54.42;100261.75;5116824;28;965;-55
2021/08/18 12:03:48;;;;;;;;;;;;;;;20.84;54.44;100264.19;5097398;28;978;-55
2021/08/18 12:06:13;;;;;;;;;;;;;;;20.67;56.06;100260.16;5116756;28;811;-56
2021/08/18 12:08:39;;;;;;;;;;;;;;;20.79;56.49;100259.59;5116289;28;1246;-51
2021/08/18 12:11:05;;;;;;;;;;;;;;;21.01;56.47;100260.69;5116690;28;787;-56
2021/08/18 12:13:56;;;;;;;;;;;;;;;21.20;56.34;100257.72;5116328;28;815;-44
2021/08/18 12:16:23;;;;;;;;;;;;;;;21.14;55.90;100247.91;5111069;28;1909;-54
2021/08/18 12:18:50;;;;;;;;;;;;;;;21.25;53.48;100246.53;5116188;28;755;-54
2021/08/18 12:21:16;;;;;;;;;;;;;;;20.90;51.48;100243.59;5116198;28;831;-54
2021/08/18 12:23:43;;;;;;;;;;;;;;;20.24;49.80;100232.16;5116621;28;806;-46
2021/08/18 12:26:24;;;;;;;;;;;;;;;19.95;47.95;100227.84;5116050;28;878;-56
2021/08/18 12:28:52;;;;;;;;;;;;;;;19.77;46.26;100235.94;5116131;28;874;-45
2021/08/18 12:31:18;;;;;;;;;;;;;;;19.43;45.49;100237.19;5116018;28;949;-47
2021/08/18 12:33:43;;;;;;;;;;;;;;;19.31;45.42;100223.88;5116469;28;752;-52
2021/08/18 12:36:11;;;;;;;;;;;;;;;19.55;47.88;100222.06;5116047;28;1976;-46
2021/08/18 12:38:37;;;;;;;;;;;;;;;20.16;52.84;100226.28;5116304;28;722;-55
2021/08/18 12:41:06;;;;;;;;;;;;;;;20.73;55.39;100216.63;5116354;28;755;-55
2021/08/18 12:43:34;;;;;;;;;;;;;;;21.37;56.27;100218.25;5116054;28;802;-46
2021/08/18 12:46:00;;;;;;;;;;;;;;;21.57;57.92;100210.56;5116260;28;803;-46
2021/08/18 12:48:31;;;;;;;;;;;;;;;21.90;58.23;100204.59;5115620;28;966;-56
2021/08/18 12:50:59;;;;;;;;;;;;;;;21.82;57.55;100200.69;5115669;28;867;-55
2021/08/18 12:53:25;;;;;;;;;;;;;;;21.35;54.99;100206.72;5116118;28;767;-56